Time;durP1;ratioP1;P1;durP2;ratioP2;P2;SDS_P1;SDS_P2;PMS_P1;PMS_P2;Temp;Humidity;BMP_temperature;BMP_pressure;BME280_temperature;BME280_humidity;BME280_pressure;Samples;Min_cycle;Max_cycle;Signal;HPM_P1;HPM_P2
2022/03/04 00:40:55;;;;;;;33.33;17.17;;;-2.30;96.30;;;;;;6040165;23;20441;-77
2022/03/04 00:43:21;;;;;;;33.20;17.60;;;-2.30;96.30;;;;;;4956002;28;20438;-77
2022/03/04 00:45:46;;;;;;;36.63;17.97;;;-2.20;96.30;;;;;;4974867;28;20180;-77
2022/03/04 00:48:12;;;;;;;39.07;19.23;;;-2.10;96.30;;;;;;4974749;28;20261;-78
2022/03/04 00:50:37;;;;;;;32.17;17.73;;;-2.00;96.30;;;;;;4971934;28;20203;-78
2022/03/04 00:53:03;;;;;;;39.17;18.90;;;-2.00;96.30;;;;;;4955548;29;20215;-77
2022/03/04 00:55:29;;;;;;;34.57;17.37;;;-1.90;96.30;;;;;;4956257;29;20182;-77
2022/03/04 00:57:55;;;;;;;31.63;17.57;;;-1.90;96.30;;;;;;4957004;29;20194;-78
2022/03/04 05:01:34;;;;;;;29.30;14.70;;;-1.80;96.30;;;;;;5408434;23;20541;-79
2022/03/04 05:03:59;;;;;;;30.00;14.83;;;-1.80;96.30;;;;;;4936901;29;20755;-79
2022/03/04 05:06:25;;;;;;;27.63;14.67;;;-1.80;96.30;;;;;;4935140;29;20251;-79
2022/03/04 05:08:50;;;;;;;30.07;15.60;;;-1.80;96.30;;;;;;4918804;29;20657;-79
2022/03/04 05:11:16;;;;;;;26.57;14.70;;;-1.80;96.30;;;;;;4935496;29;20199;-79
2022/03/04 05:13:41;;;;;;;30.60;15.37;;;-1.70;96.30;;;;;;4938176;29;20664;-78
2022/03/04 05:16:07;;;;;;;26.37;14.70;;;-1.70;96.30;;;;;;4922801;29;20172;-79
2022/03/04 05:18:32;;;;;;;26.70;14.57;;;-1.70;96.30;;;;;;4922880;29;20210;-79
2022/03/04 05:28:41;;;;;;;30.50;15.00;;;-1.70;96.30;;;;;;4915201;29;21000;-79
2022/03/04 05:31:07;;;;;;;28.10;13.37;;;-1.70;96.30;;;;;;4924678;29;20432;-79
2022/03/04 05:33:33;;;;;;;26.10;13.20;;;-1.60;96.30;;;;;;4934961;29;20728;-78
2022/03/04 05:35:59;;;;;;;31.30;14.03;;;-1.80;96.30;;;;;;4936090;29;20239;-77
2022/03/04 05:38:25;;;;;;;28.07;15.03;;;-1.70;96.30;;;;;;4935237;29;20403;-79
2022/03/04 05:40:50;;;;;;;29.43;14.67;;;-1.70;96.30;;;;;;4935994;29;20952;-78
2022/03/04 05:43:16;;;;;;;26.10;13.40;;;-1.70;96.30;;;;;;4934741;29;20724;-79
2022/03/04 05:45:41;;;;;;;23.13;12.70;;;-1.80;96.30;;;;;;4935933;29;20202;-79
2022/03/04 05:48:07;;;;;;;25.27;13.00;;;-1.80;96.30;;;;;;4935251;29;20204;-80
2022/03/04 05:50:33;;;;;;;31.70;14.53;;;-1.80;96.30;;;;;;4934722;29;20211;-77
2022/03/04 05:52:58;;;;;;;30.97;15.50;;;-1.80;96.30;;;;;;4934846;29;20186;-78
2022/03/04 05:55:24;;;;;;;27.57;14.37;;;-1.80;96.30;;;;;;4934512;29;20179;-77
2022/03/04 05:57:49;;;;;;;46.57;14.53;;;-1.80;96.30;;;;;;4934902;29;20175;-79
2022/03/04 06:00:15;;;;;;;30.43;15.30;;;-1.80;96.30;;;;;;4935405;29;20196;-77
2022/03/04 06:02:41;;;;;;;36.93;16.13;;;-1.80;96.30;;;;;;4934328;29;20187;-77
2022/03/04 06:05:07;;;;;;;51.80;14.77;;;-1.80;96.30;;;;;;4937573;29;20274;-77
2022/03/04 06:07:35;;;;;;;33.07;15.03;;;-1.80;96.30;;;;;;4935927;29;20591;-78
2022/03/04 06:10:01;;;;;;;51.27;14.00;;;-1.80;96.30;;;;;;4935264;29;20423;-78
2022/03/04 06:12:26;;;;;;;50.57;15.73;;;-1.70;96.30;;;;;;4933849;29;20451;-80
2022/03/04 06:14:52;;;;;;;62.57;15.80;;;-1.70;96.30;;;;;;4933925;29;20479;-77
2022/03/04 06:17:18;;;;;;;41.83;17.17;;;-1.70;96.30;;;;;;4933897;29;20274;-78
2022/03/04 06:19:44;;;;;;;28.43;14.10;;;-1.80;96.30;;;;;;4934621;29;20171;-78
2022/03/04 06:22:09;;;;;;;46.07;17.07;;;-1.70;96.30;;;;;;4935064;29;20980;-77
2022/03/04 06:24:35;;;;;;;48.13;16.53;;;-1.80;96.30;;;;;;4933807;29;20419;-79
2022/03/04 06:27:01;;;;;;;37.30;16.40;;;-1.80;96.30;;;;;;4934880;29;20237;-79
2022/03/04 06:29:26;;;;;;;58.90;16.80;;;-1.70;96.30;;;;;;4934682;29;20252;-78
2022/03/04 06:31:52;;;;;;;43.27;15.47;;;-1.70;96.30;;;;;;4934942;29;20286;-79
2022/03/04 06:34:17;;;;;;;43.77;17.17;;;-1.70;96.30;;;;;;4934625;29;20186;-78
2022/03/04 06:36:43;;;;;;;47.40;17.83;;;-1.70;96.30;;;;;;4933653;29;20195;-78
2022/03/04 06:39:08;;;;;;;51.00;15.60;;;-1.70;96.30;;;;;;4934274;29;20184;-77
2022/03/04 06:41:34;;;;;;;38.93;15.57;;;-1.70;96.30;;;;;;4934277;29;20729;-78
2022/03/04 06:43:59;;;;;;;46.87;18.57;;;-1.70;96.30;;;;;;4934563;29;20190;-79
2022/03/04 06:46:25;;;;;;;35.47;17.37;;;-1.70;96.30;;;;;;4933307;29;20199;-79
2022/03/04 06:48:50;;;;;;;37.83;13.57;;;-1.70;96.30;;;;;;4932915;29;20199;-78
2022/03/04 06:51:16;;;;;;;96.47;18.97;;;-1.80;96.30;;;;;;4920175;29;20207;-78
2022/03/04 06:53:41;;;;;;;73.57;14.47;;;-1.80;96.30;;;;;;4914289;29;20176;-80
2022/03/04 06:56:07;;;;;;;77.80;19.57;;;-1.80;96.30;;;;;;4931803;29;20187;-81
2022/03/04 06:58:33;;;;;;;93.00;19.77;;;-1.70;96.30;;;;;;4911636;29;20192;-81
2022/03/04 07:00:58;;;;;;;101.80;21.10;;;-1.70;96.30;;;;;;4915875;29;20212;-81
2022/03/04 07:03:24;;;;;;;117.70;19.93;;;-1.70;96.30;;;;;;4920340;29;20202;-79
2022/03/04 07:05:50;;;;;;;155.80;23.57;;;-1.70;96.30;;;;;;4926309;29;20194;-80
2022/03/04 07:08:15;;;;;;;99.67;20.73;;;-1.70;96.30;;;;;;4919009;29;20229;-79
2022/03/04 07:10:45;;;;;;;145.70;22.40;;;-1.70;96.30;;;;;;4922511;29;20232;-77
2022/03/04 07:13:12;;;;;;;90.50;20.47;;;-1.70;96.30;;;;;;4922695;29;20172;-78
2022/03/04 07:15:38;;;;;;;89.03;19.60;;;-1.70;96.30;;;;;;4918993;29;20932;-78
2022/03/04 07:18:03;;;;;;;168.80;22.37;;;-1.70;96.30;;;;;;4917672;29;20428;-78
2022/03/04 07:20:29;;;;;;;137.40;22.37;;;-1.70;96.30;;;;;;4915394;29;20922;-78
2022/03/04 07:22:55;;;;;;;136.67;22.53;;;-1.70;96.30;;;;;;4914195;29;20183;-78
2022/03/04 07:25:20;;;;;;;204.33;22.90;;;-1.70;96.30;;;;;;4915255;29;20259;-79
2022/03/04 07:27:46;;;;;;;125.77;23.87;;;-1.70;96.30;;;;;;4925112;29;20237;-78
2022/03/04 07:30:14;;;;;;;134.97;19.13;;;-1.60;96.30;;;;;;4932964;29;20230;-77
2022/03/04 07:32:40;;;;;;;167.60;20.83;;;-1.60;96.30;;;;;;4933157;29;20274;-79
2022/03/04 07:35:10;;;;;;;165.43;21.70;;;-1.60;96.30;;;;;;4937165;29;20430;-81
2022/03/04 07:37:40;;;;;;;224.47;20.80;;;-1.60;96.30;;;;;;4936226;29;20438;-80
2022/03/04 07:40:07;;;;;;;113.67;20.60;;;-1.60;96.30;;;;;;4933323;29;20431;-79
2022/03/04 07:42:33;;;;;;;175.63;19.07;;;-1.70;96.30;;;;;;4924763;29;20541;-78
2022/03/04 07:44:59;;;;;;;243.53;21.50;;;-1.70;96.30;;;;;;4937801;29;20515;-81
2022/03/04 07:47:25;;;;;;;174.80;20.30;;;-1.70;96.30;;;;;;4937986;29;20203;-80
2022/03/04 07:49:50;;;;;;;132.27;17.70;;;-1.70;96.30;;;;;;4937037;29;20179;-81
2022/03/04 07:52:16;;;;;;;182.90;20.10;;;-1.70;96.30;;;;;;4918344;29;20200;-80
2022/03/04 07:54:43;;;;;;;142.60;19.57;;;-1.70;96.30;;;;;;4918662;29;20642;-79
2022/03/04 07:57:08;;;;;;;208.40;22.07;;;-1.70;96.30;;;;;;4936335;29;20180;-81
2022/03/04 07:59:34;;;;;;;185.87;17.27;;;-1.80;96.30;;;;;;4932576;29;20435;-80
2022/03/04 08:01:59;;;;;;;269.33;21.63;;;-1.80;96.30;;;;;;4937172;29;20705;-81
2022/03/04 08:04:25;;;;;;;284.13;20.50;;;-1.80;96.30;;;;;;4917569;29;20209;-80
2022/03/04 08:06:50;;;;;;;206.07;20.40;;;-1.80;96.30;;;;;;4919366;29;20210;-80
2022/03/04 08:09:16;;;;;;;164.80;19.90;;;-1.80;96.30;;;;;;4917000;29;20186;-80
2022/03/04 08:11:44;;;;;;;117.93;18.87;;;-1.70;96.30;;;;;;4918438;29;20560;-81
2022/03/04 08:14:09;;;;;;;154.73;17.67;;;-1.70;96.30;;;;;;4918251;29;20176;-80
2022/03/04 08:16:35;;;;;;;143.33;20.40;;;-1.70;96.30;;;;;;4919570;29;20419;-80
2022/03/04 08:19:03;;;;;;;122.70;20.57;;;-1.70;96.30;;;;;;4934507;29;20646;-80
2022/03/04 08:21:29;;;;;;;140.77;20.13;;;-1.70;96.30;;;;;;4934908;29;20455;-81
2022/03/04 08:23:54;;;;;;;148.70;18.20;;;-1.70;96.30;;;;;;4939690;29;20418;-80
2022/03/04 08:26:20;;;;;;;108.57;18.60;;;-1.60;96.30;;;;;;4930016;29;20200;-81
2022/03/04 08:28:46;;;;;;;117.63;17.30;;;-1.60;96.30;;;;;;4922762;29;20184;-80
2022/03/04 08:31:12;;;;;;;137.47;17.90;;;-1.60;96.30;;;;;;4926916;29;20692;-80
2022/03/04 08:33:38;;;;;;;115.03;17.00;;;-1.60;96.30;;;;;;4948012;29;20510;-80
2022/03/04 08:36:05;;;;;;;88.20;17.20;;;-1.50;96.30;;;;;;4916816;29;20692;-80
2022/03/04 08:38:30;;;;;;;110.97;16.60;;;-1.50;96.30;;;;;;4916253;29;20427;-81
2022/03/04 08:40:56;;;;;;;120.73;16.90;;;-1.50;96.30;;;;;;4931953;29;20459;-80
2022/03/04 08:43:21;;;;;;;112.47;16.80;;;-1.50;96.30;;;;;;4958433;29;20539;-80
2022/03/04 08:45:47;;;;;;;121.53;17.63;;;-1.40;96.30;;;;;;4957930;28;20167;-80
2022/03/04 08:48:12;;;;;;;175.37;17.20;;;-1.40;96.30;;;;;;4958501;29;20206;-80
2022/03/04 08:50:38;;;;;;;145.60;18.00;;;-1.40;96.30;;;;;;4940875;29;20191;-80
2022/03/04 08:53:04;;;;;;;117.40;16.33;;;-1.40;96.30;;;;;;4941211;29;20234;-80
2022/03/04 08:55:30;;;;;;;93.60;17.60;;;-1.40;96.30;;;;;;4940813;29;20171;-80
2022/03/04 08:57:57;;;;;;;113.53;17.57;;;-1.30;96.30;;;;;;4935311;29;20231;-80
2022/03/04 09:00:23;;;;;;;101.00;18.90;;;-1.30;96.30;;;;;;4921676;29;20419;-81
2022/03/04 09:02:48;;;;;;;57.57;15.40;;;-1.30;96.30;;;;;;4922806;29;20419;-80
2022/03/04 09:05:14;;;;;;;81.27;16.53;;;-1.30;96.30;;;;;;4938853;29;20912;-80
2022/03/04 09:07:39;;;;;;;90.33;17.87;;;-1.30;96.30;;;;;;4938175;29;20211;-81
2022/03/04 09:10:06;;;;;;;84.63;15.77;;;-1.30;96.30;;;;;;4921802;29;20270;-81
2022/03/04 09:12:32;;;;;;;66.60;13.10;;;-1.20;96.30;;;;;;4942084;29;20198;-80
2022/03/04 09:14:58;;;;;;;75.23;15.83;;;-1.30;96.30;;;;;;4955707;29;20426;-80
2022/03/04 09:17:24;;;;;;;56.90;14.67;;;-1.30;96.30;;;;;;4955449;29;20454;-83
2022/03/04 09:19:49;;;;;;;72.87;15.13;;;-1.30;96.30;;;;;;4955512;29;20253;-80
2022/03/04 09:22:15;;;;;;;30.23;13.57;;;-1.30;96.30;;;;;;4938430;29;20270;-80
2022/03/04 09:24:43;;;;;;;76.17;14.87;;;-1.30;96.30;;;;;;4938302;29;20563;-80
2022/03/04 09:27:10;;;;;;;55.90;15.37;;;-1.30;96.30;;;;;;4937749;29;20226;-80
2022/03/04 09:29:36;;;;;;;94.30;15.73;;;-1.20;96.30;;;;;;4920092;29;20426;-81
2022/03/04 09:32:02;;;;;;;35.37;15.07;;;-1.10;96.30;;;;;;4939119;29;20210;-81
2022/03/04 09:34:27;;;;;;;29.03;14.10;;;-1.00;96.30;;;;;;4937206;29;20189;-82
2022/03/04 09:36:53;;;;;;;22.97;14.33;;;-0.90;96.30;;;;;;4919318;29;20707;-84
2022/03/04 09:39:18;;;;;;;32.33;14.53;;;-0.80;96.30;;;;;;4941585;29;20179;-79
2022/03/04 09:41:45;;;;;;;26.80;14.40;;;-0.80;96.30;;;;;;4926858;29;20197;-79
2022/03/04 09:44:15;;;;;;;27.00;14.33;;;-0.80;96.30;;;;;;4939209;29;20199;-81
2022/03/04 09:46:41;;;;;;;24.00;13.43;;;-0.80;96.30;;;;;;4927991;29;20586;-83
2022/03/04 09:49:14;;;;;;;39.97;13.57;;;-0.70;96.30;;;;;;4938014;29;21031;-82
2022/03/04 09:51:39;;;;;;;29.57;14.57;;;-0.70;96.30;;;;;;4939825;29;20466;-84
2022/03/04 09:54:06;;;;;;;30.77;14.23;;;-0.70;96.30;;;;;;4938772;29;20422;-84
2022/03/04 09:56:34;;;;;;;31.23;15.90;;;-0.80;96.30;;;;;;4938341;29;20183;-84
2022/03/04 09:59:00;;;;;;;29.80;15.30;;;-0.80;96.30;;;;;;4956870;29;20405;-83
2022/03/04 10:01:26;;;;;;;31.93;13.27;;;-0.80;96.30;;;;;;4957060;29;20465;-82
2022/03/04 10:03:54;;;;;;;30.63;16.37;;;-0.80;96.30;;;;;;4940742;29;21089;-82
2022/03/04 10:06:22;;;;;;;34.70;14.83;;;-0.80;96.30;;;;;;4940178;29;20225;-81
2022/03/04 10:08:52;;;;;;;37.60;17.57;;;-0.80;96.30;;;;;;4940485;29;20414;-81
2022/03/04 10:11:31;;;;;;;34.00;15.27;;;-0.80;96.30;;;;;;4940392;29;20461;-81
2022/03/04 10:14:02;;;;;;;37.23;15.47;;;-0.80;96.30;;;;;;4940237;29;20430;-81
2022/03/04 10:16:33;;;;;;;34.70;13.93;;;-0.80;96.30;;;;;;4940047;29;20505;-81
2022/03/04 10:19:19;;;;;;;55.70;15.53;;;-0.80;96.30;;;;;;4933363;29;20427;-80
2022/03/04 10:21:59;;;;;;;42.10;15.23;;;-0.80;96.30;;;;;;4937681;29;20515;-80
2022/03/04 10:24:39;;;;;;;35.83;14.17;;;-0.90;96.30;;;;;;4932866;29;20430;-82
2022/03/04 10:27:10;;;;;;;33.70;14.50;;;-0.90;96.30;;;;;;4935195;29;20466;-79
2022/03/04 10:29:38;;;;;;;26.73;13.27;;;-1.00;96.30;;;;;;4956379;29;20410;-79
2022/03/04 10:32:26;;;;;;;25.97;14.07;;;-1.00;96.30;;;;;;4956431;29;20442;-79
2022/03/04 10:35:05;;;;;;;24.97;12.10;;;-1.00;96.30;;;;;;4957214;29;20517;-78
2022/03/04 10:37:56;;;;;;;28.97;13.13;;;-1.00;96.30;;;;;;4936910;29;20516;-85
2022/03/04 10:40:34;;;;;;;22.80;12.80;;;-0.90;96.30;;;;;;4918458;29;20419;-81
2022/03/04 10:43:05;;;;;;;25.53;13.90;;;-0.90;96.30;;;;;;4917961;29;20511;-81
2022/03/04 10:45:54;;;;;;;21.93;12.40;;;-0.80;96.30;;;;;;4918620;29;20455;-79
2022/03/04 10:48:20;;;;;;;27.80;11.80;;;-0.80;96.30;;;;;;4922009;29;20502;-79
2022/03/04 10:50:47;;;;;;;25.13;12.30;;;-0.80;96.30;;;;;;4915140;29;20500;-79
2022/03/04 10:53:17;;;;;;;25.93;12.90;;;-0.80;96.30;;;;;;4922242;29;20183;-79
2022/03/04 10:55:48;;;;;;;26.00;13.47;;;-0.90;96.30;;;;;;4934798;29;20412;-79
2022/03/04 10:58:28;;;;;;;23.80;12.37;;;-0.80;96.30;;;;;;4918020;29;20411;-79
2022/03/04 11:01:02;;;;;;;17.17;9.90;;;-0.70;96.30;;;;;;4918037;29;20439;-78
2022/03/04 11:03:30;;;;;;;16.23;9.53;;;-0.80;96.30;;;;;;4934861;29;20392;-78
2022/03/04 11:06:01;;;;;;;20.50;11.03;;;-0.80;96.30;;;;;;4917635;29;20952;-79
2022/03/04 11:08:27;;;;;;;18.93;11.23;;;-0.90;96.30;;;;;;4924706;29;20502;-81
2022/03/04 11:10:54;;;;;;;20.77;11.00;;;-0.90;96.30;;;;;;4957715;29;20485;-80
2022/03/04 11:13:20;;;;;;;21.57;9.90;;;-0.90;96.30;;;;;;4957352;29;20186;-78
2022/03/04 11:15:47;;;;;;;20.20;10.63;;;-0.90;96.30;;;;;;4940466;29;20513;-79
2022/03/04 11:18:17;;;;;;;17.97;10.10;;;-0.90;96.30;;;;;;4956932;29;20589;-78
2022/03/04 11:20:44;;;;;;;21.90;10.03;;;-0.80;96.30;;;;;;4940386;29;21136;-79
2022/03/04 11:23:16;;;;;;;22.70;10.47;;;-0.90;96.30;;;;;;4940329;29;20458;-79
2022/03/04 11:25:43;;;;;;;17.23;10.13;;;-0.90;96.30;;;;;;4940252;29;20421;-79
2022/03/04 11:28:17;;;;;;;13.30;8.20;;;-0.90;96.30;;;;;;4940855;29;20519;-80
2022/03/04 13:16:23;;;;;;;11.80;7.20;;;-0.80;96.30;;;;;;5369923;23;20560;-81
2022/03/04 13:18:49;;;;;;;17.87;9.50;;;-0.90;96.30;;;;;;4977301;28;20402;-82
2022/03/04 13:21:15;;;;;;;15.23;7.47;;;-0.80;96.30;;;;;;4954952;29;20469;-81
2022/03/04 13:23:51;;;;;;;15.73;8.90;;;-0.80;96.30;;;;;;4941547;29;20179;-82
2022/03/04 13:26:21;;;;;;;20.00;9.77;;;-0.80;96.30;;;;;;4957397;28;20783;-81
2022/03/04 13:28:56;;;;;;;14.03;8.70;;;-0.90;96.30;;;;;;4957453;29;20407;-81
2022/03/04 13:47:50;;;;;;;12.03;8.60;;;-0.70;96.30;;;;;;5325132;23;20482;-83
2022/03/04 13:50:25;;;;;;;13.33;8.23;;;-0.70;96.30;;;;;;4977060;28;20453;-83
2022/03/04 13:53:05;;;;;;;16.80;8.97;;;-0.70;96.30;;;;;;4957611;29;20798;-83
2022/03/04 13:55:39;;;;;;;14.60;8.80;;;-0.70;96.30;;;;;;4958193;29;20483;-82
2022/03/04 13:58:21;;;;;;;12.43;8.10;;;-0.70;96.30;;;;;;4956754;29;20454;-82
2022/03/04 14:34:19;;;;;;;14.30;8.87;;;-0.80;96.30;;;;;;4934670;29;20479;-83
2022/03/04 14:36:46;;;;;;;14.33;9.70;;;-0.80;96.30;;;;;;4935038;29;20988;-84
2022/03/04 14:39:11;;;;;;;18.90;10.67;;;-0.80;96.30;;;;;;4935550;29;20198;-82
2022/03/04 14:41:38;;;;;;;14.27;8.80;;;-0.90;96.30;;;;;;4935991;29;20826;-82
2022/03/04 14:44:04;;;;;;;15.30;9.73;;;-0.90;96.30;;;;;;4931461;29;20187;-84
2022/03/04 14:46:31;;;;;;;16.13;8.77;;;-0.90;96.30;;;;;;4933999;29;20459;-84
2022/03/04 14:48:56;;;;;;;17.87;10.40;;;-0.90;96.30;;;;;;4933818;29;20195;-84
2022/03/04 14:51:22;;;;;;;13.93;8.40;;;-0.90;96.30;;;;;;4937217;29;20941;-83
2022/03/04 14:53:48;;;;;;;16.60;8.77;;;-0.90;96.30;;;;;;4938140;29;20282;-83
2022/03/04 14:56:15;;;;;;;12.83;8.97;;;-0.80;96.30;;;;;;4934487;29;20633;-84
2022/03/04 14:58:40;;;;;;;17.00;9.53;;;-0.80;96.30;;;;;;4933860;29;20411;-83
2022/03/04 15:01:06;;;;;;;21.73;10.17;;;-0.70;96.30;;;;;;4934358;29;20443;-83
2022/03/04 15:03:33;;;;;;;14.93;9.57;;;-0.80;96.30;;;;;;4934330;29;20186;-84
2022/03/04 15:05:59;;;;;;;20.87;9.47;;;-0.80;96.30;;;;;;4936292;29;20202;-84
2022/03/04 15:08:24;;;;;;;18.13;10.40;;;-0.80;96.30;;;;;;4933735;29;20964;-85
2022/03/04 15:10:50;;;;;;;17.33;10.80;;;-0.80;96.30;;;;;;4935251;29;20219;-83
2022/03/04 15:13:15;;;;;;;15.47;10.20;;;-0.90;96.30;;;;;;4950018;29;20180;-81
2022/03/04 15:15:41;;;;;;;15.03;9.03;;;-0.90;96.30;;;;;;4934059;29;20187;-82
2022/03/04 15:18:06;;;;;;;17.93;10.67;;;-0.80;96.30;;;;;;4934006;29;20188;-81
2022/03/04 15:20:32;;;;;;;17.93;10.83;;;-0.80;96.30;;;;;;4931002;29;20218;-83
2022/03/04 15:22:58;;;;;;;21.00;10.87;;;-0.90;96.30;;;;;;4933968;29;20612;-84
2022/03/04 15:25:24;;;;;;;17.97;9.20;;;-0.80;96.30;;;;;;4934297;29;20274;-84
2022/03/04 15:27:52;;;;;;;18.90;11.10;;;-0.80;96.30;;;;;;4934980;29;20610;-83
2022/03/04 15:30:18;;;;;;;18.73;10.83;;;-0.80;96.30;;;;;;4934117;29;20180;-83
2022/03/04 15:32:44;;;;;;;24.87;11.17;;;-0.80;96.30;;;;;;4933409;29;20498;-83
2022/03/04 15:35:10;;;;;;;17.93;11.67;;;-0.80;96.30;;;;;;4934694;29;20419;-83
2022/03/04 15:37:41;;;;;;;21.50;11.77;;;-0.70;96.30;;;;;;4933811;29;20424;-83
2022/03/04 15:40:10;;;;;;;18.20;9.57;;;-0.70;96.30;;;;;;4933609;29;20502;-83
2022/03/04 15:42:37;;;;;;;23.00;12.30;;;-0.70;96.30;;;;;;4935430;29;20450;-83
2022/03/04 15:45:03;;;;;;;20.60;11.07;;;-0.70;96.30;;;;;;4935026;29;20427;-82
2022/03/04 15:47:30;;;;;;;20.97;11.87;;;-0.80;96.30;;;;;;4934304;29;20555;-83
2022/03/04 15:49:57;;;;;;;17.10;11.10;;;-0.80;96.30;;;;;;4934355;29;20420;-83
2022/03/04 15:52:23;;;;;;;23.33;11.80;;;-0.80;96.30;;;;;;4936606;29;20435;-82
2022/03/04 15:54:48;;;;;;;19.93;10.70;;;-0.70;96.30;;;;;;4937470;29;20543;-84
2022/03/04 15:57:15;;;;;;;20.07;11.47;;;-0.70;96.30;;;;;;4943993;29;20195;-83
2022/03/04 15:59:42;;;;;;;16.63;10.40;;;-0.70;96.30;;;;;;4940442;29;20218;-83
2022/03/04 16:02:08;;;;;;;20.53;12.33;;;-0.70;96.30;;;;;;4938240;29;20494;-83
2022/03/04 16:04:34;;;;;;;24.00;11.50;;;-0.70;96.30;;;;;;4937187;29;20937;-82
2022/03/04 16:07:00;;;;;;;20.43;10.43;;;-0.70;96.30;;;;;;4938872;29;20469;-83
2022/03/04 16:09:26;;;;;;;19.20;11.47;;;-0.70;96.30;;;;;;4937163;29;20420;-82
2022/03/04 16:11:52;;;;;;;20.73;11.47;;;-0.70;96.30;;;;;;4938109;29;20274;-83
2022/03/04 16:14:17;;;;;;;28.43;11.70;;;-0.70;96.30;;;;;;4937539;29;20995;-83
2022/03/04 16:16:43;;;;;;;23.60;10.53;;;-0.70;96.30;;;;;;4936788;29;20585;-82
2022/03/04 16:19:09;;;;;;;20.67;12.03;;;-0.70;96.30;;;;;;4937599;29;20239;-83
2022/03/04 16:21:35;;;;;;;26.23;12.47;;;-0.70;96.30;;;;;;4937397;29;20199;-82
2022/03/04 16:24:01;;;;;;;21.70;11.53;;;-0.70;96.30;;;;;;4938870;29;20716;-83
2022/03/04 16:26:27;;;;;;;25.30;15.50;;;-0.70;96.30;;;;;;4937878;29;20438;-82
2022/03/04 16:28:54;;;;;;;28.80;15.30;;;-0.70;96.30;;;;;;4936210;29;20412;-83
2022/03/04 16:31:20;;;;;;;26.90;15.57;;;-0.70;96.30;;;;;;4937983;29;20187;-82
2022/03/04 16:33:46;;;;;;;18.87;12.63;;;-0.70;96.30;;;;;;4936985;29;20446;-82
2022/03/04 16:36:12;;;;;;;19.80;12.00;;;-0.70;96.30;;;;;;4937653;29;20420;-82
2022/03/04 16:38:38;;;;;;;21.27;12.53;;;-0.80;96.30;;;;;;4938883;29;20189;-83
2022/03/04 16:41:03;;;;;;;22.20;12.50;;;-0.80;96.30;;;;;;4939362;29;20507;-82
2022/03/04 16:43:31;;;;;;;26.57;14.37;;;-0.80;96.30;;;;;;4937375;29;20184;-82
2022/03/04 16:46:00;;;;;;;24.90;13.10;;;-0.80;96.30;;;;;;4938014;29;20258;-83
2022/03/04 16:48:27;;;;;;;21.23;12.47;;;-0.80;96.30;;;;;;4939517;29;20505;-81
2022/03/04 16:50:53;;;;;;;26.60;14.10;;;-0.80;96.30;;;;;;4940497;29;20518;-84
2022/03/04 16:53:19;;;;;;;19.47;12.40;;;-0.80;96.30;;;;;;4940088;29;20506;-83
2022/03/04 16:55:47;;;;;;;25.30;13.97;;;-0.80;96.30;;;;;;4939292;29;20487;-81
2022/03/04 16:58:14;;;;;;;20.97;13.00;;;-0.80;96.30;;;;;;4938014;29;20427;-82
2022/03/04 17:00:44;;;;;;;22.17;13.23;;;-0.80;96.30;;;;;;4937669;29;20545;-81
2022/03/04 17:03:17;;;;;;;24.70;13.13;;;-0.80;96.30;;;;;;4941174;29;20427;-82
2022/03/04 17:05:44;;;;;;;27.20;15.13;;;-0.80;96.30;;;;;;4935938;29;20497;-82
2022/03/04 17:08:11;;;;;;;21.97;12.80;;;-0.80;96.30;;;;;;4933619;29;20466;-82
2022/03/04 17:10:37;;;;;;;24.40;13.03;;;-0.90;96.30;;;;;;4935951;29;20467;-82
2022/03/04 17:13:02;;;;;;;24.97;14.43;;;-0.90;96.30;;;;;;4936203;29;20428;-81
2022/03/04 17:15:28;;;;;;;23.50;13.67;;;-0.90;96.30;;;;;;4936395;29;20611;-82
2022/03/04 17:17:54;;;;;;;24.00;13.87;;;-0.90;96.30;;;;;;4937089;29;20207;-81
2022/03/04 17:20:19;;;;;;;20.83;12.70;;;-0.90;96.30;;;;;;4936713;29;20426;-82
2022/03/04 17:22:46;;;;;;;21.00;13.60;;;-0.90;96.30;;;;;;4937110;29;20179;-80
2022/03/04 17:25:12;;;;;;;23.20;13.87;;;-0.90;96.30;;;;;;4937266;29;20175;-82
2022/03/04 17:27:38;;;;;;;23.10;13.03;;;-1.00;96.30;;;;;;4937568;29;20513;-82
2022/03/04 17:30:05;;;;;;;25.90;12.80;;;-1.00;96.30;;;;;;4938348;29;20522;-80
2022/03/04 17:32:30;;;;;;;22.27;12.80;;;-1.00;96.30;;;;;;4937547;29;20673;-82
2022/03/04 17:34:58;;;;;;;28.07;13.27;;;-1.00;96.30;;;;;;4937156;29;20507;-81
2022/03/04 17:37:23;;;;;;;24.43;13.80;;;-1.00;96.30;;;;;;4936504;29;20180;-82
2022/03/04 17:39:51;;;;;;;21.37;11.60;;;-1.00;96.30;;;;;;4937403;29;20434;-80
2022/03/04 17:42:16;;;;;;;23.10;13.60;;;-1.00;96.30;;;;;;4935899;29;20274;-80
2022/03/04 17:44:42;;;;;;;23.27;13.10;;;-1.00;96.30;;;;;;4934361;29;20542;-79
2022/03/04 17:47:07;;;;;;;23.20;13.10;;;-1.00;96.30;;;;;;4936228;29;20227;-81
2022/03/04 17:49:33;;;;;;;21.63;12.50;;;-1.00;96.30;;;;;;4934129;29;20171;-77
2022/03/04 17:52:00;;;;;;;22.70;13.60;;;-1.00;96.30;;;;;;4934869;29;20226;-75
2022/03/04 17:54:25;;;;;;;27.80;14.27;;;-1.10;96.30;;;;;;4934669;29;20211;-80
2022/03/04 17:56:51;;;;;;;21.37;12.60;;;-1.10;96.30;;;;;;4937546;29;20423;-82
2022/03/04 17:59:17;;;;;;;21.63;13.20;;;-1.10;96.30;;;;;;4936058;29;20180;-80
2022/03/04 18:01:43;;;;;;;23.10;13.20;;;-1.00;96.30;;;;;;4927270;29;20510;-83
2022/03/04 18:04:08;;;;;;;22.87;14.30;;;-1.00;96.30;;;;;;4934987;29;20657;-83
2022/03/04 18:06:34;;;;;;;27.00;11.77;;;-1.00;96.30;;;;;;4935481;29;20286;-83
2022/03/04 18:09:03;;;;;;;27.50;13.97;;;-1.00;96.30;;;;;;4946285;29;20645;-82
2022/03/04 18:11:28;;;;;;;24.97;14.27;;;-1.00;96.30;;;;;;4938238;29;20227;-81
2022/03/04 18:13:54;;;;;;;22.30;13.77;;;-1.00;96.30;;;;;;4942618;29;20412;-83
2022/03/04 18:16:19;;;;;;;30.07;14.00;;;-1.00;96.30;;;;;;4935220;29;20230;-81
2022/03/04 18:18:46;;;;;;;35.83;13.90;;;-1.00;96.30;;;;;;4926290;29;20826;-82
2022/03/04 18:21:12;;;;;;;27.07;14.30;;;-1.00;96.30;;;;;;4938146;29;20653;-80
2022/03/04 18:23:38;;;;;;;21.70;13.37;;;-1.00;96.30;;;;;;4936899;29;20411;-79
2022/03/04 18:26:05;;;;;;;24.00;14.43;;;-1.00;96.30;;;;;;4935216;29;20422;-84
2022/03/04 18:28:34;;;;;;;27.77;13.10;;;-1.00;96.30;;;;;;4935470;29;20546;-81
2022/03/04 18:31:00;;;;;;;28.43;13.50;;;-1.00;96.30;;;;;;4934752;29;20439;-80
2022/03/04 18:33:26;;;;;;;25.37;14.60;;;-1.00;96.30;;;;;;4934249;29;20439;-78
2022/03/04 18:35:51;;;;;;;24.90;12.73;;;-1.00;96.30;;;;;;4934306;29;20943;-83
2022/03/04 18:41:01;;;;;;;25.37;14.33;;;-1.10;96.30;;;;;;4927270;29;20219;-82
2022/03/04 18:43:26;;;;;;;22.40;13.80;;;-1.10;96.30;;;;;;4931532;29;20518;-82
2022/03/04 18:45:52;;;;;;;25.63;13.93;;;-1.10;96.30;;;;;;4952128;29;20179;-82
2022/03/04 18:48:18;;;;;;;23.90;13.30;;;-1.10;96.30;;;;;;4951394;29;20729;-82
2022/03/04 18:50:44;;;;;;;23.77;14.80;;;-1.10;96.30;;;;;;4953082;29;20199;-82
2022/03/04 18:53:09;;;;;;;21.17;13.37;;;-1.10;96.30;;;;;;4937921;29;20638;-83
2022/03/04 18:55:35;;;;;;;25.63;14.60;;;-1.10;96.30;;;;;;4952057;29;20186;-82
2022/03/04 18:58:02;;;;;;;26.13;14.23;;;-1.10;96.30;;;;;;4950878;29;20290;-82
2022/03/04 19:00:27;;;;;;;24.80;12.80;;;-1.10;96.30;;;;;;4950718;29;20214;-83
2022/03/04 19:02:55;;;;;;;20.93;12.87;;;-1.10;96.30;;;;;;4950805;29;20415;-81
2022/03/04 19:05:22;;;;;;;22.37;12.73;;;-1.20;96.30;;;;;;4950546;29;20281;-82
2022/03/04 19:07:48;;;;;;;23.30;13.03;;;-1.20;96.30;;;;;;4934347;29;20569;-83
2022/03/04 19:10:15;;;;;;;25.60;14.07;;;-1.20;96.30;;;;;;4943213;29;20471;-82
2022/03/04 19:12:42;;;;;;;21.53;12.30;;;-1.20;96.30;;;;;;4938708;29;20525;-82
2022/03/04 19:15:11;;;;;;;24.23;13.70;;;-1.20;96.30;;;;;;4936268;29;20408;-82
2022/03/04 19:17:37;;;;;;;25.10;14.43;;;-1.30;96.30;;;;;;4935689;29;20419;-82
2022/03/04 19:20:04;;;;;;;25.23;13.80;;;-1.30;96.30;;;;;;4940183;29;20443;-82
2022/03/04 19:22:29;;;;;;;24.33;13.03;;;-1.30;96.30;;;;;;4961086;29;20203;-81
2022/03/04 19:24:55;;;;;;;24.53;14.80;;;-1.30;96.30;;;;;;4947673;29;20419;-81
2022/03/04 19:27:21;;;;;;;27.63;14.53;;;-1.30;96.30;;;;;;4951601;29;21066;-83
2022/03/04 19:29:46;;;;;;;26.93;14.10;;;-1.40;96.30;;;;;;4921296;29;20189;-82
2022/03/04 19:32:12;;;;;;;21.30;12.77;;;-1.30;96.30;;;;;;4923441;29;20207;-80
2022/03/04 19:34:37;;;;;;;23.37;13.53;;;-1.30;96.30;;;;;;4924434;29;20176;-80
2022/03/04 19:37:03;;;;;;;29.07;13.63;;;-1.30;96.30;;;;;;4922475;29;20196;-81
2022/03/04 19:39:29;;;;;;;23.90;13.97;;;-1.30;96.30;;;;;;4924405;29;20180;-81
2022/03/04 19:41:55;;;;;;;25.53;14.17;;;-1.30;96.30;;;;;;4934022;29;20482;-80
2022/03/04 19:44:25;;;;;;;26.40;13.50;;;-1.30;96.30;;;;;;4942174;29;20462;-80
2022/03/04 19:46:52;;;;;;;26.23;14.73;;;-1.30;96.30;;;;;;4943294;29;20336;-84
2022/03/04 19:49:19;;;;;;;24.40;13.90;;;-1.20;96.30;;;;;;4943419;29;20473;-82
2022/03/04 19:51:45;;;;;;;28.47;14.70;;;-1.20;96.30;;;;;;4941314;29;20443;-81